createdAt,value
2023-01-18T00:01:13.715Z,100.00
2023-01-18T00:03:41.594Z,100.00
2023-01-18T00:06:10.155Z,100.00
2023-01-18T00:08:39.525Z,100.00
2023-01-18T00:11:09.096Z,100.00
2023-01-18T00:13:37.169Z,100.00
2023-01-18T00:16:06.144Z,100.00
2023-01-18T00:18:34.148Z,100.00
2023-01-18T00:21:05.475Z,100.00
2023-01-18T00:23:33.301Z,100.00
2023-01-18T00:26:08.200Z,100.00
2023-01-18T00:28:36.233Z,100.00
2023-01-18T00:31:04.130Z,100.00
2023-01-18T00:33:31.891Z,100.00
2023-01-18T00:36:01.345Z,100.00
2023-01-18T00:38:29.602Z,100.00
2023-01-18T00:40:57.483Z,100.00
2023-01-18T00:43:40.554Z,100.00
2023-01-18T00:46:17.043Z,100.00
2023-01-18T00:48:48.059Z,100.00
2023-01-18T00:51:17.366Z,100.00
2023-01-18T00:53:48.507Z,100.00
2023-01-18T00:56:22.714Z,100.00
2023-01-18T00:58:50.772Z,100.00
2023-01-18T01:01:18.791Z,100.00
2023-01-18T01:04:05.511Z,100.00
2023-01-18T01:06:46.650Z,100.00
2023-01-18T01:09:28.040Z,100.00
2023-01-18T01:12:14.335Z,100.00
2023-01-18T01:15:02.019Z,100.00
2023-01-18T01:17:49.587Z,100.00
2023-01-18T01:20:35.849Z,100.00
2023-01-18T01:23:41.359Z,100.00
2023-01-18T01:26:09.925Z,100.00
2023-01-18T01:28:50.804Z,100.00
2023-01-18T01:31:19.276Z,100.00
2023-01-18T01:33:47.303Z,100.00
2023-01-18T01:36:16.506Z,100.00
2023-01-18T01:38:44.439Z,100.00
2023-01-18T01:41:19.030Z,100.00
2023-01-18T01:43:54.380Z,100.00
2023-01-18T01:46:31.713Z,100.00
2023-01-18T01:49:07.430Z,100.00
2023-01-18T01:51:36.603Z,100.00
2023-01-18T01:54:06.081Z,100.00
2023-01-18T01:56:33.809Z,100.00
2023-01-18T01:59:02.014Z,100.00
2023-01-18T02:01:29.939Z,100.00
2023-01-18T02:03:59.433Z,100.00
2023-01-18T02:06:32.511Z,100.00
2023-01-18T02:09:08.135Z,100.00
2023-01-18T02:11:35.964Z,100.00
2023-01-18T02:14:06.347Z,100.00
2023-01-18T02:16:57.240Z,100.00
2023-01-18T02:20:02.657Z,100.00
2023-01-18T02:23:00.619Z,100.00
2023-01-18T02:25:53.212Z,100.00
2023-01-18T02:28:26.305Z,100.00
2023-01-18T02:31:03.279Z,100.00
2023-01-18T02:33:40.553Z,100.00
2023-01-18T02:36:08.313Z,100.00
2023-01-18T02:38:48.586Z,100.00
2023-01-18T02:41:23.165Z,100.00
2023-01-18T02:44:11.146Z,100.00
2023-01-18T02:46:39.994Z,100.00
2023-01-18T02:49:19.508Z,100.00
2023-01-18T02:51:47.265Z,100.00
2023-01-18T02:54:25.282Z,100.00
2023-01-18T02:56:54.542Z,100.00
2023-01-18T02:59:33.587Z,100.00
2023-01-18T03:02:09.453Z,100.00
2023-01-18T03:04:40.022Z,100.00
2023-01-18T03:07:18.876Z,100.00
2023-01-18T03:09:46.705Z,100.00
2023-01-18T03:12:47.197Z,100.00
2023-01-18T03:15:32.692Z,100.00
2023-01-18T03:18:23.867Z,100.00
2023-01-18T03:20:57.034Z,100.00
2023-01-18T03:23:41.088Z,100.00
2023-01-18T03:26:16.023Z,100.00
2023-01-18T03:29:07.128Z,100.00
2023-01-18T03:31:58.622Z,100.00
2023-01-18T03:34:35.239Z,100.00
2023-01-18T03:37:05.852Z,100.00
2023-01-18T03:39:40.356Z,100.00
2023-01-18T03:42:16.917Z,100.00
2023-01-18T03:44:53.623Z,100.00
2023-01-18T03:47:21.700Z,100.00
2023-01-18T03:49:49.435Z,100.00
2023-01-18T03:52:25.014Z,100.00
2023-01-18T03:55:01.372Z,100.00
2023-01-18T03:57:35.820Z,100.00
2023-01-18T04:00:05.288Z,100.00
2023-01-18T04:02:33.237Z,100.00
2023-01-18T04:05:04.759Z,100.00
2023-01-18T04:07:32.997Z,100.00
2023-01-18T04:10:01.318Z,100.00
2023-01-18T04:12:29.395Z,100.00
2023-01-18T04:14:57.172Z,100.00
2023-01-18T04:17:24.926Z,100.00
2023-01-18T04:19:52.753Z,100.00
2023-01-18T04:22:20.641Z,100.00
2023-01-18T04:24:48.457Z,100.00
2023-01-18T04:27:16.314Z,100.00
2023-01-18T04:29:44.015Z,100.00
2023-01-18T04:32:11.929Z,100.00
2023-01-18T04:34:39.861Z,100.00
2023-01-18T04:37:07.718Z,100.00
2023-01-18T04:39:35.520Z,100.00
2023-01-18T04:42:03.360Z,100.00
2023-01-18T04:44:31.165Z,100.00
2023-01-18T04:46:58.916Z,100.00
2023-01-18T04:49:26.778Z,100.00
2023-01-18T04:51:54.553Z,100.00
2023-01-18T04:54:22.379Z,100.00
2023-01-18T04:56:50.217Z,100.00
2023-01-18T04:59:18.096Z,100.00
2023-01-18T05:01:45.835Z,100.00
2023-01-18T05:04:13.617Z,100.00
2023-01-18T05:06:41.361Z,100.00
2023-01-18T05:09:10.778Z,100.00
2023-01-18T05:11:38.629Z,100.00
2023-01-18T05:14:06.469Z,100.00
2023-01-18T05:16:34.355Z,100.00
2023-01-18T05:19:02.164Z,100.00
2023-01-18T05:21:29.958Z,100.00
2023-01-18T05:23:57.766Z,100.00
2023-01-18T05:26:25.768Z,100.00
2023-01-18T05:28:57.866Z,100.00
2023-01-18T05:31:25.837Z,100.00
2023-01-18T05:33:53.712Z,100.00
2023-01-18T05:36:21.721Z,100.00
2023-01-18T05:38:49.464Z,100.00
2023-01-18T05:41:17.214Z,100.00
2023-01-18T05:43:45.117Z,100.00
2023-01-18T05:46:12.957Z,100.00
2023-01-18T05:48:40.766Z,100.00
2023-01-18T05:51:10.361Z,100.00
2023-01-18T05:53:38.383Z,100.00
2023-01-18T05:56:07.237Z,100.00
2023-01-18T05:58:35.188Z,100.00
2023-01-18T06:01:03.030Z,100.00
2023-01-18T06:03:30.931Z,100.00
2023-01-18T06:06:00.424Z,100.00
2023-01-18T06:08:28.639Z,100.00
2023-01-18T06:10:57.387Z,100.00
2023-01-18T06:13:25.410Z,100.00
2023-01-18T06:15:55.742Z,100.00
2023-01-18T06:18:24.139Z,100.00
2023-01-18T06:20:55.056Z,100.00
2023-01-18T06:23:22.841Z,100.00
2023-01-18T06:25:50.791Z,100.00
2023-01-18T06:28:18.805Z,100.00
2023-01-18T06:30:49.073Z,100.00
2023-01-18T06:33:16.961Z,100.00
2023-01-18T06:35:45.039Z,100.00
2023-01-18T06:38:12.992Z,100.00
2023-01-18T06:40:40.988Z,100.00
2023-01-18T06:43:10.142Z,100.00
2023-01-18T06:45:38.035Z,100.00
2023-01-18T06:48:05.884Z,100.00
2023-01-18T06:50:33.713Z,100.00
2023-01-18T06:53:01.599Z,100.00
2023-01-18T06:55:29.401Z,100.00
2023-01-18T06:57:58.277Z,100.00
2023-01-18T07:00:26.259Z,100.00
2023-01-18T07:02:54.347Z,100.00
2023-01-18T07:05:22.154Z,100.00
2023-01-18T07:07:50.033Z,100.00
2023-01-18T07:10:18.048Z,100.00
2023-01-18T07:12:49.653Z,100.00
2023-01-18T07:15:22.964Z,100.00
2023-01-18T07:17:51.448Z,100.00
2023-01-18T07:20:19.736Z,100.00
2023-01-18T07:22:53.054Z,100.00
2023-01-18T07:25:21.754Z,100.00
2023-01-18T07:27:50.252Z,100.00
2023-01-18T07:30:18.610Z,100.00
2023-01-18T07:32:50.651Z,100.00
2023-01-18T07:35:20.817Z,100.00
2023-01-18T07:37:54.769Z,100.00
2023-01-18T07:40:22.987Z,100.00
2023-01-18T07:42:51.137Z,100.00
2023-01-18T07:45:19.110Z,100.00
2023-01-18T07:47:47.334Z,100.00
2023-01-18T07:50:18.100Z,100.00
2023-01-18T07:52:45.899Z,100.00
2023-01-18T07:55:13.769Z,100.00
2023-01-18T07:57:41.584Z,100.00
2023-01-18T08:00:10.086Z,100.00
2023-01-18T08:02:38.002Z,100.00
2023-01-18T08:05:06.188Z,100.00
2023-01-18T08:07:34.416Z,100.00
2023-01-18T08:10:02.278Z,100.00
2023-01-18T08:12:30.115Z,100.00
2023-01-18T08:14:57.829Z,100.00
2023-01-18T08:17:25.684Z,100.00
2023-01-18T08:19:53.465Z,100.00
2023-01-18T08:22:21.452Z,100.00
2023-01-18T08:24:49.321Z,100.00
2023-01-18T08:27:17.903Z,100.00
2023-01-18T08:29:47.072Z,100.00
2023-01-18T08:32:15.180Z,100.00
2023-01-18T08:34:43.060Z,100.00
2023-01-18T08:37:12.751Z,100.00
2023-01-18T08:39:40.629Z,100.00
2023-01-18T08:42:08.414Z,100.00
2023-01-18T08:44:36.381Z,100.00
2023-01-18T08:47:04.574Z,100.00
2023-01-18T08:49:33.971Z,100.00
2023-01-18T08:52:01.802Z,100.00
2023-01-18T08:54:29.631Z,100.00
2023-01-18T08:56:57.440Z,100.00
2023-01-18T08:59:25.249Z,100.00
2023-01-18T09:01:53.174Z,100.00
2023-01-18T09:04:20.977Z,100.00
2023-01-18T09:06:50.475Z,100.00
2023-01-18T09:09:18.462Z,100.00
2023-01-18T09:11:46.304Z,100.00
2023-01-18T09:14:14.201Z,100.00
2023-01-18T09:16:41.945Z,100.00
2023-01-18T09:19:09.771Z,100.00
2023-01-18T09:21:37.491Z,100.00
2023-01-18T09:24:05.487Z,100.00
2023-01-18T09:26:33.305Z,100.00
2023-01-18T09:29:01.019Z,100.00
2023-01-18T09:31:29.434Z,100.00
2023-01-18T09:34:06.362Z,100.00
2023-01-18T09:36:45.147Z,100.00
2023-01-18T09:39:12.982Z,100.00
2023-01-18T09:41:45.531Z,100.00
2023-01-18T09:44:24.281Z,100.00
2023-01-18T09:46:56.883Z,100.00
2023-01-18T09:49:29.321Z,100.00
2023-01-18T09:52:09.315Z,98.63
2023-01-18T09:54:57.238Z,99.42
2023-01-18T09:57:45.844Z,97.94
2023-01-18T10:00:23.307Z,95.87
2023-01-18T10:02:54.379Z,97.36
2023-01-18T10:05:26.659Z,95.69
2023-01-18T10:08:08.924Z,94.32
2023-01-18T10:10:42.071Z,94.45
2023-01-18T10:13:40.633Z,92.19
2023-01-18T10:16:18.059Z,92.64
2023-01-18T10:18:50.048Z,91.22
2023-01-18T10:21:34.341Z,90.14
2023-01-18T10:24:20.386Z,90.10
2023-01-18T10:26:49.134Z,92.31
2023-01-18T10:29:53.647Z,90.92
2023-01-18T10:32:22.711Z,89.81
2023-01-18T10:34:55.211Z,88.44
2023-01-18T10:37:38.563Z,87.97
2023-01-18T10:40:12.247Z,86.91
2023-01-18T10:43:16.279Z,88.07
2023-01-18T10:45:44.269Z,81.71
2023-01-18T10:48:30.736Z,83.19
2023-01-18T10:51:08.148Z,83.23
2023-01-18T10:53:36.986Z,82.59
2023-01-18T10:56:05.994Z,82.90
2023-01-18T10:58:37.184Z,81.87
2023-01-18T11:01:05.074Z,82.89
2023-01-18T11:03:37.642Z,86.12
2023-01-18T11:06:07.332Z,89.79
2023-01-18T11:08:37.561Z,83.30
2023-01-18T11:11:47.457Z,83.61
2023-01-18T11:14:25.157Z,86.04
2023-01-18T11:17:03.483Z,83.56
2023-01-18T11:19:31.503Z,85.18
2023-01-18T11:21:59.283Z,86.44
2023-01-18T11:24:31.438Z,82.81
2023-01-18T11:27:00.343Z,80.50
2023-01-18T11:29:40.731Z,80.80
2023-01-18T11:32:16.774Z,81.69
2023-01-18T11:34:47.592Z,79.76
2023-01-18T11:37:37.310Z,80.60
2023-01-18T11:40:20.442Z,79.69
2023-01-18T11:42:48.639Z,80.45
2023-01-18T11:45:22.632Z,79.19
2023-01-18T11:47:57.270Z,77.30
2023-01-18T11:50:50.324Z,76.40
2023-01-18T11:53:42.805Z,76.96
2023-01-18T11:56:29.915Z,76.35
2023-01-18T11:58:57.749Z,77.52
2023-01-18T12:01:50.339Z,76.56
2023-01-18T12:04:34.457Z,75.63
2023-01-18T12:07:10.162Z,76.78
2023-01-18T12:09:55.501Z,77.28
2023-01-18T12:12:43.541Z,77.89
2023-01-18T12:15:13.623Z,77.63
2023-01-18T12:18:13.506Z,78.56
2023-01-18T12:21:02.786Z,77.54
2023-01-18T12:23:36.491Z,77.78
2023-01-18T12:26:29.251Z,77.31
2023-01-18T12:29:30.257Z,77.54
2023-01-18T12:32:10.048Z,76.83
2023-01-18T12:34:37.659Z,74.33
2023-01-18T12:37:30.285Z,73.07
2023-01-18T12:40:22.575Z,73.41
2023-01-18T12:43:08.895Z,72.32
2023-01-18T12:45:40.212Z,72.12
2023-01-18T12:48:34.355Z,72.10
2023-01-18T12:51:02.074Z,74.29
2023-01-18T12:53:50.554Z,73.87
2023-01-18T12:56:35.794Z,73.75
2023-01-18T12:59:15.848Z,72.49
2023-01-18T13:02:05.570Z,71.98
2023-01-18T13:04:47.917Z,72.38
2023-01-18T13:07:16.095Z,71.83
2023-01-18T13:09:48.979Z,72.76
2023-01-18T13:12:17.186Z,71.85
2023-01-18T13:15:02.039Z,67.67
2023-01-18T13:17:34.513Z,70.09
2023-01-18T13:20:08.632Z,70.58
2023-01-18T13:22:39.025Z,70.74
2023-01-18T13:26:03.334Z,71.71
2023-01-18T13:28:36.114Z,68.18
2023-01-18T13:31:07.511Z,68.15
2023-01-18T13:33:48.303Z,69.56
2023-01-18T13:36:21.567Z,69.24
2023-01-18T13:38:53.773Z,70.94
2023-01-18T13:41:26.284Z,69.46
2023-01-18T13:43:54.952Z,68.37
2023-01-18T13:46:24.919Z,69.57
2023-01-18T13:48:58.451Z,68.64
2023-01-18T13:51:41.690Z,69.89
2023-01-18T13:54:20.355Z,69.33
2023-01-18T13:57:05.324Z,69.83
2023-01-18T13:59:35.311Z,69.83
2023-01-18T14:02:27.928Z,69.94
2023-01-18T14:05:22.476Z,69.47
2023-01-18T14:07:53.096Z,70.03
2023-01-18T14:10:38.962Z,70.80
2023-01-18T14:13:08.545Z,68.04
2023-01-18T14:15:51.458Z,69.43
2023-01-18T14:18:25.588Z,70.97
2023-01-18T14:21:12.618Z,70.23
2023-01-18T14:24:10.910Z,70.74
2023-01-18T14:26:43.559Z,70.22
2023-01-18T14:29:38.086Z,70.87
2023-01-18T14:32:07.544Z,70.13
2023-01-18T14:34:44.091Z,69.71
2023-01-18T14:37:31.911Z,69.68
2023-01-18T14:40:15.333Z,70.19
2023-01-18T14:42:56.141Z,68.76
2023-01-18T14:45:31.817Z,69.66
2023-01-18T14:48:08.768Z,69.74
2023-01-18T14:50:46.870Z,68.05
2023-01-18T14:53:21.258Z,69.18
2023-01-18T14:56:16.471Z,68.40
2023-01-18T14:58:51.873Z,67.22
2023-01-18T15:01:53.833Z,67.84
2023-01-18T15:04:22.728Z,66.40
2023-01-18T15:07:28.705Z,67.64
2023-01-18T15:10:01.561Z,68.62
2023-01-18T15:12:31.601Z,68.93
2023-01-18T15:15:26.695Z,69.27
2023-01-18T15:17:57.112Z,69.74
2023-01-18T15:20:29.954Z,70.12
2023-01-18T15:22:58.187Z,69.50
2023-01-18T15:25:28.384Z,70.59
2023-01-18T15:27:56.346Z,70.38
2023-01-18T15:30:24.949Z,69.15
2023-01-18T15:32:58.006Z,69.90
2023-01-18T15:38:06.235Z,69.40
2023-01-18T15:40:34.120Z,69.98
2023-01-18T15:43:18.099Z,70.54
2023-01-18T15:45:50.596Z,70.59
2023-01-18T15:48:23.119Z,70.54
2023-01-18T15:50:52.920Z,70.84
2023-01-18T15:53:37.332Z,70.00
2023-01-18T15:56:07.702Z,70.04
2023-01-18T15:58:46.266Z,70.85
2023-01-18T16:01:14.012Z,69.21
2023-01-18T16:03:51.200Z,70.37
2023-01-18T16:06:30.877Z,70.20
2023-01-18T16:09:18.597Z,70.09
2023-01-18T16:11:48.810Z,69.45
2023-01-18T16:14:36.162Z,70.31
2023-01-18T16:17:08.107Z,70.66
2023-01-18T16:19:47.115Z,69.48
2023-01-18T16:22:30.444Z,70.60
2023-01-18T16:25:12.039Z,69.79
2023-01-18T16:27:54.849Z,69.26
2023-01-18T16:30:29.571Z,70.87
2023-01-18T16:32:57.846Z,69.67
2023-01-18T16:35:26.206Z,69.58
2023-01-18T16:37:54.287Z,70.55
2023-01-18T16:40:23.679Z,70.40
2023-01-18T16:43:17.037Z,71.84
2023-01-18T16:45:49.805Z,70.37
2023-01-18T16:48:19.334Z,70.48
2023-01-18T16:50:47.855Z,71.42
2023-01-18T16:53:15.908Z,71.01
2023-01-18T16:55:52.689Z,70.20
2023-01-18T16:58:27.285Z,68.02
2023-01-18T17:01:00.634Z,69.13
2023-01-18T17:03:35.753Z,68.91
2023-01-18T17:06:15.829Z,69.50
2023-01-18T17:08:52.283Z,69.55
2023-01-18T17:11:20.157Z,70.14
2023-01-18T17:13:48.897Z,70.41
2023-01-18T17:16:21.945Z,70.51
2023-01-18T17:18:50.982Z,69.80
2023-01-18T17:21:18.817Z,69.63
2023-01-18T17:24:00.633Z,70.34
2023-01-18T17:26:29.721Z,68.67
2023-01-18T17:29:11.232Z,67.95
2023-01-18T17:31:48.093Z,68.63
2023-01-18T17:34:27.106Z,68.73
2023-01-18T17:37:04.485Z,68.35
2023-01-18T17:39:50.045Z,69.10
2023-01-18T17:42:30.446Z,69.57
2023-01-18T17:45:04.798Z,69.29
2023-01-18T17:47:33.285Z,69.47
2023-01-18T17:50:15.832Z,70.01
2023-01-18T17:52:43.902Z,69.41
2023-01-18T17:55:13.682Z,68.77
2023-01-18T17:57:42.441Z,68.15
2023-01-18T18:00:23.662Z,67.58
2023-01-18T18:05:50.684Z,66.62
2023-01-18T18:08:19.717Z,68.17
2023-01-18T18:10:48.401Z,67.55
2023-01-18T18:13:16.430Z,68.40
2023-01-18T18:15:49.590Z,66.13
2023-01-18T18:18:23.152Z,65.07
2023-01-18T18:21:03.196Z,66.93
2023-01-18T18:23:31.453Z,67.00
2023-01-18T18:25:59.634Z,67.47
2023-01-18T18:28:30.611Z,68.57
2023-01-18T18:30:59.406Z,67.31
2023-01-18T18:33:30.661Z,67.19
2023-01-18T18:35:59.231Z,65.80
2023-01-18T18:38:28.542Z,66.30
2023-01-18T18:40:58.724Z,66.55
2023-01-18T18:43:26.726Z,67.38
2023-01-18T18:45:55.059Z,66.61
2023-01-18T18:48:22.911Z,67.49
2023-01-18T18:50:53.349Z,67.14
2023-01-18T18:53:23.846Z,67.71
2023-01-18T18:56:01.176Z,67.58
2023-01-18T18:58:29.072Z,65.74
2023-01-18T19:00:56.865Z,65.95
2023-01-18T19:03:24.815Z,66.56
2023-01-18T19:05:52.982Z,66.46
2023-01-18T19:08:20.787Z,66.64
2023-01-18T19:10:52.580Z,67.21
2023-01-18T19:13:20.502Z,67.35
2023-01-18T19:15:48.902Z,68.03
2023-01-18T19:18:18.840Z,68.80
2023-01-18T19:20:46.748Z,69.65
2023-01-18T19:23:18.004Z,70.59
2023-01-18T19:25:45.874Z,70.72
2023-01-18T19:28:13.862Z,71.32
2023-01-18T19:30:43.291Z,72.19
2023-01-18T19:33:12.144Z,72.99
2023-01-18T19:35:41.399Z,73.24
2023-01-18T19:38:09.567Z,73.62
2023-01-18T19:40:37.880Z,74.90
2023-01-18T19:43:05.762Z,75.85
2023-01-18T19:45:33.861Z,75.90
2023-01-18T19:48:06.387Z,75.73
2023-01-18T19:50:39.004Z,75.78
2023-01-18T19:53:12.776Z,74.67
2023-01-18T19:55:43.930Z,74.58
2023-01-18T19:58:11.922Z,74.82
2023-01-18T20:00:42.375Z,75.07
2023-01-18T20:03:11.962Z,75.47
2023-01-18T20:05:43.653Z,75.66
2023-01-18T20:08:11.920Z,75.29
2023-01-18T20:10:39.718Z,74.73
2023-01-18T20:13:07.890Z,73.46
2023-01-18T20:15:35.721Z,72.54
2023-01-18T20:18:03.679Z,72.72
2023-01-18T20:20:33.016Z,72.48
2023-01-18T20:23:05.642Z,72.43
2023-01-18T20:25:33.884Z,72.18
2023-01-18T20:28:01.872Z,72.95
2023-01-18T20:30:29.797Z,73.28
2023-01-18T20:32:58.307Z,72.65
2023-01-18T20:35:26.488Z,72.95
2023-01-18T20:37:55.637Z,73.37
2023-01-18T20:40:23.892Z,72.88
2023-01-18T20:42:51.889Z,73.47
2023-01-18T20:45:19.840Z,73.34
2023-01-18T20:47:47.745Z,73.50
2023-01-18T20:50:15.640Z,73.51
2023-01-18T20:52:44.163Z,74.58
2023-01-18T20:55:15.857Z,75.15
2023-01-18T20:57:43.746Z,75.27
2023-01-18T21:00:16.482Z,75.52
2023-01-18T21:02:49.070Z,75.47
2023-01-18T21:05:23.391Z,75.19
2023-01-18T21:07:53.567Z,76.33
2023-01-18T21:10:21.549Z,76.32
2023-01-18T21:12:49.462Z,77.14
2023-01-18T21:15:22.815Z,76.88
2023-01-18T21:17:51.672Z,76.77
2023-01-18T21:20:19.557Z,77.02
2023-01-18T21:22:47.959Z,76.53
2023-01-18T21:25:16.697Z,77.31
2023-01-18T21:27:47.256Z,76.49
2023-01-18T21:30:16.659Z,76.46
2023-01-18T21:32:44.763Z,77.26
2023-01-18T21:35:13.266Z,77.47
2023-01-18T21:37:45.676Z,77.67
2023-01-18T21:40:13.924Z,77.92
2023-01-18T21:43:00.253Z,78.34
2023-01-18T21:45:51.877Z,77.73
2023-01-18T21:48:20.336Z,77.43
2023-01-18T21:51:06.802Z,77.15
2023-01-18T21:53:53.334Z,77.52
2023-01-18T21:56:21.415Z,78.16
2023-01-18T21:58:55.072Z,77.65
2023-01-18T22:01:27.948Z,78.39
2023-01-18T22:04:14.487Z,77.28
2023-01-18T22:06:42.725Z,77.21
2023-01-18T22:09:10.602Z,77.91
2023-01-18T22:11:38.785Z,76.91
2023-01-18T22:14:06.918Z,78.18
2023-01-18T22:16:34.921Z,78.14
2023-01-18T22:19:02.940Z,77.78
2023-01-18T22:21:30.746Z,76.87
2023-01-18T22:23:59.140Z,76.33
2023-01-18T22:26:28.554Z,75.92
2023-01-18T22:28:56.768Z,76.60
2023-01-18T22:31:24.716Z,76.44
2023-01-18T22:33:52.670Z,77.17
2023-01-18T22:36:20.532Z,76.93
2023-01-18T22:38:48.587Z,77.02
2023-01-18T22:41:18.773Z,77.40
2023-01-18T22:43:52.222Z,77.55
2023-01-18T22:46:20.772Z,77.05
2023-01-18T22:48:49.093Z,77.08
2023-01-18T22:51:20.979Z,77.52
2023-01-18T22:53:49.122Z,77.60
2023-01-18T22:56:24.573Z,77.24
2023-01-18T22:58:52.783Z,77.82
2023-01-18T23:01:26.147Z,79.09
2023-01-18T23:03:56.191Z,78.53
2023-01-18T23:06:24.145Z,79.22
2023-01-18T23:08:52.278Z,79.56
2023-01-18T23:11:27.483Z,80.64
2023-01-18T23:14:15.293Z,80.62
2023-01-18T23:17:01.796Z,80.71
2023-01-18T23:19:30.992Z,78.17
2023-01-18T23:21:59.093Z,78.12
2023-01-18T23:24:27.045Z,79.16
2023-01-18T23:26:54.931Z,79.43
2023-01-18T23:29:22.954Z,80.45
2023-01-18T23:31:50.676Z,81.22
2023-01-18T23:34:19.950Z,80.91
2023-01-18T23:36:47.820Z,81.06
2023-01-18T23:39:34.138Z,82.11
2023-01-18T23:42:20.335Z,81.28
2023-01-18T23:45:07.024Z,80.91
2023-01-18T23:47:53.400Z,81.57
2023-01-18T23:50:39.641Z,82.62
2023-01-18T23:53:26.040Z,82.94
2023-01-18T23:55:56.611Z,83.54
2023-01-18T23:58:24.713Z,83.38
